createdAt,value
2023-04-18T00:01:15.098Z,87.31
2023-04-18T00:06:16.801Z,87.23
2023-04-18T00:11:18.455Z,87.28
2023-04-18T00:16:20.877Z,87.16
2023-04-18T00:21:22.732Z,87.21
2023-04-18T00:26:24.422Z,87.18
2023-04-18T00:31:26.910Z,87.26
2023-04-18T00:36:28.881Z,87.27
2023-04-18T00:41:30.588Z,87.28
2023-04-18T00:46:32.689Z,87.29
2023-04-18T00:51:35.620Z,87.28
2023-04-18T00:56:37.423Z,87.30
2023-04-18T01:01:40.185Z,87.39
2023-04-18T01:06:44.129Z,87.48
2023-04-18T01:11:46.056Z,87.45
2023-04-18T01:16:51.262Z,87.53
2023-04-18T01:21:54.337Z,87.39
2023-04-18T01:26:57.182Z,87.45
2023-04-18T01:31:58.942Z,87.27
2023-04-18T01:37:00.818Z,87.23
2023-04-18T01:42:02.811Z,87.05
2023-04-18T01:47:04.537Z,87.16
2023-04-18T01:52:07.549Z,87.09
2023-04-18T01:57:09.220Z,87.16
2023-04-18T02:02:11.443Z,87.19
2023-04-18T02:07:13.422Z,87.06
2023-04-18T02:12:15.261Z,87.00
2023-04-18T02:17:16.934Z,87.07
2023-04-18T02:22:18.830Z,86.89
2023-04-18T02:27:20.814Z,86.89
2023-04-18T02:32:22.605Z,86.94
2023-04-18T02:37:24.467Z,86.77
2023-04-18T02:42:26.317Z,86.69
2023-04-18T02:47:28.037Z,86.67
2023-04-18T02:52:30.500Z,86.75
2023-04-18T02:57:32.246Z,86.72
2023-04-18T03:02:34.396Z,86.68
2023-04-18T03:07:44.500Z,86.59
2023-04-18T03:12:47.640Z,86.69
2023-04-18T03:17:51.425Z,86.79
2023-04-18T03:22:55.111Z,86.76
2023-04-18T03:27:59.217Z,86.74
2023-04-18T03:33:02.939Z,86.66
2023-04-18T03:38:05.397Z,86.57
2023-04-18T03:43:08.674Z,86.52
2023-04-18T03:48:11.077Z,86.17
2023-04-18T03:53:16.036Z,86.30
2023-04-18T03:58:18.160Z,86.23
2023-04-18T04:03:20.546Z,86.26
2023-04-18T04:08:22.830Z,86.21
2023-04-18T04:13:24.594Z,86.31
2023-04-18T04:18:31.189Z,86.36
2023-04-18T04:23:34.370Z,86.19
2023-04-18T04:28:37.151Z,86.08
2023-04-18T04:33:41.084Z,86.15
2023-04-18T04:38:48.934Z,85.78
2023-04-18T04:43:52.324Z,85.65
2023-04-18T04:48:57.362Z,85.59
2023-04-18T04:54:00.570Z,85.39
2023-04-18T04:59:02.889Z,85.24
2023-04-18T05:04:09.692Z,84.84
2023-04-18T05:09:11.511Z,84.64
2023-04-18T05:14:13.521Z,84.52
2023-04-18T05:19:15.763Z,84.44
2023-04-18T05:24:17.466Z,83.89
2023-04-18T05:29:19.381Z,83.64
2023-04-18T05:34:21.177Z,83.20
2023-04-18T05:39:22.960Z,82.86
2023-04-18T05:44:24.885Z,82.33
2023-04-18T05:49:26.969Z,82.01
2023-04-18T05:54:29.063Z,81.48
2023-04-18T05:59:30.791Z,81.09
2023-04-18T06:04:32.736Z,80.38
2023-04-18T06:09:34.899Z,80.62
2023-04-18T06:14:36.584Z,80.38
2023-04-18T06:19:39.576Z,78.70
2023-04-18T06:24:41.346Z,79.23
2023-04-18T06:29:43.895Z,77.38
2023-04-18T06:34:45.773Z,76.47
2023-04-18T06:39:47.578Z,75.88
2023-04-18T06:44:49.273Z,75.29
2023-04-18T06:49:51.238Z,73.80
2023-04-18T06:54:52.977Z,73.38
2023-04-18T06:59:54.713Z,72.71
2023-04-18T07:04:56.702Z,72.54
2023-04-18T07:09:59.147Z,71.26
2023-04-18T07:15:00.840Z,70.03
2023-04-18T07:20:03.250Z,68.76
2023-04-18T07:25:05.113Z,65.95
2023-04-18T07:30:07.517Z,64.63
2023-04-18T07:35:10.084Z,63.03
2023-04-18T07:40:12.330Z,62.71
2023-04-18T07:45:15.499Z,58.84
2023-04-18T07:50:17.292Z,56.99
2023-04-18T07:55:19.105Z,56.98
2023-04-18T08:00:21.259Z,55.50
2023-04-18T08:05:23.273Z,52.80
2023-04-18T08:10:25.204Z,51.57
2023-04-18T08:15:28.984Z,50.62
2023-04-18T08:20:31.261Z,49.16
2023-04-18T08:25:33.349Z,48.80
2023-04-18T08:30:35.393Z,47.86
2023-04-18T08:35:37.243Z,46.73
2023-04-18T08:40:39.029Z,48.32
2023-04-18T08:45:44.889Z,49.20
2023-04-18T08:50:47.908Z,50.63
2023-04-18T08:55:53.995Z,49.63
2023-04-18T09:00:55.791Z,50.06
2023-04-18T09:06:09.324Z,49.04
2023-04-18T09:11:42.475Z,47.19
2023-04-18T09:16:47.288Z,48.00
2023-04-18T09:21:57.799Z,46.56
2023-04-18T09:27:01.194Z,45.94
2023-04-18T09:32:02.927Z,45.62
2023-04-18T09:37:11.033Z,45.62
2023-04-18T09:42:13.781Z,45.92
2023-04-18T09:47:15.527Z,46.39
2023-04-18T09:52:19.429Z,46.97
2023-04-18T09:57:22.109Z,45.92
2023-04-18T10:02:26.350Z,46.35
2023-04-18T10:07:28.461Z,45.66
2023-04-18T10:12:30.714Z,46.98
2023-04-18T10:18:03.664Z,47.27
2023-04-18T10:23:32.031Z,47.14
2023-04-18T10:28:57.221Z,47.26
2023-04-18T10:39:22.702Z,46.96
2023-04-18T10:44:24.548Z,45.28
2023-04-18T10:49:31.092Z,45.07
2023-04-18T10:54:56.463Z,45.19
2023-04-18T11:00:01.083Z,44.37
2023-04-18T11:05:04.842Z,43.19
2023-04-18T11:10:08.931Z,42.71
2023-04-18T11:15:11.670Z,42.50
2023-04-18T11:20:14.906Z,41.96
2023-04-18T11:25:17.666Z,42.20
2023-04-18T11:30:19.427Z,42.14
2023-04-18T11:35:21.428Z,42.90
2023-04-18T11:40:23.346Z,43.13
2023-04-18T11:45:25.067Z,42.77
2023-04-18T11:50:27.390Z,42.45
2023-04-18T11:55:29.311Z,42.27
2023-04-18T12:00:39.626Z,41.37
2023-04-18T12:05:42.280Z,41.53
2023-04-18T12:10:52.646Z,41.36
2023-04-18T12:15:54.595Z,41.34
2023-04-18T12:20:58.542Z,40.45
2023-04-18T12:26:05.783Z,39.69
2023-04-18T12:31:07.677Z,40.34
2023-04-18T12:36:10.671Z,39.42
2023-04-18T12:41:12.708Z,40.31
2023-04-18T12:46:14.277Z,40.17
2023-04-18T12:51:16.001Z,38.89
2023-04-18T12:56:17.918Z,39.32
2023-04-18T13:01:19.893Z,39.66
2023-04-18T13:06:21.679Z,38.86
2023-04-18T13:11:28.478Z,38.94
2023-04-18T13:16:30.347Z,38.16
2023-04-18T13:21:31.958Z,38.33
2023-04-18T13:26:37.635Z,37.96
2023-04-18T13:31:39.339Z,38.35
2023-04-18T13:36:41.060Z,37.92
2023-04-18T13:41:43.374Z,36.98
2023-04-18T13:46:45.267Z,37.51
2023-04-18T13:51:46.914Z,37.50
2023-04-18T13:56:50.185Z,37.23
2023-04-18T14:01:53.321Z,37.52
2023-04-18T14:06:55.538Z,36.53
2023-04-18T14:11:58.490Z,37.22
2023-04-18T14:17:00.486Z,36.81
2023-04-18T14:22:02.113Z,38.65
2023-04-18T14:27:04.126Z,39.48
2023-04-18T14:32:07.019Z,39.54
2023-04-18T14:37:08.962Z,38.97
2023-04-18T14:42:11.066Z,39.33
2023-04-18T14:47:12.824Z,39.62
2023-04-18T14:52:14.437Z,40.06
2023-04-18T14:57:16.284Z,39.94
2023-04-18T15:02:18.048Z,40.01
2023-04-18T15:07:19.757Z,40.41
2023-04-18T15:12:21.917Z,40.42
2023-04-18T15:17:23.477Z,40.41
2023-04-18T15:22:25.413Z,40.53
2023-04-18T15:27:27.266Z,41.66
2023-04-18T15:32:29.164Z,42.43
2023-04-18T15:37:30.781Z,42.96
2023-04-18T15:42:34.061Z,43.94
2023-04-18T15:47:36.209Z,42.84
2023-04-18T15:52:40.749Z,43.03
2023-04-18T15:57:42.583Z,43.63
2023-04-18T16:02:45.820Z,43.53
2023-04-18T16:07:47.778Z,43.56
2023-04-18T16:12:49.763Z,44.31
2023-04-18T16:17:51.454Z,44.60
2023-04-18T16:22:53.967Z,45.17
2023-04-18T16:27:55.892Z,45.32
2023-04-18T16:32:57.702Z,45.90
2023-04-18T16:37:59.457Z,46.46
2023-04-18T16:43:04.419Z,46.82
2023-04-18T16:48:06.214Z,48.09
2023-04-18T16:53:08.149Z,49.21
2023-04-18T16:58:09.923Z,50.74
2023-04-18T17:03:11.873Z,52.62
2023-04-18T17:08:13.685Z,54.41
2023-04-18T17:13:15.753Z,55.55
2023-04-18T17:18:17.426Z,56.53
2023-04-18T17:23:19.369Z,57.23
2023-04-18T17:28:23.705Z,58.18
2023-04-18T17:33:25.522Z,58.13
2023-04-18T17:38:27.165Z,58.51
2023-04-18T17:43:29.407Z,58.96
2023-04-18T17:48:31.278Z,59.63
2023-04-18T17:53:33.002Z,60.25
2023-04-18T17:58:35.787Z,61.03
2023-04-18T18:03:37.874Z,62.44
2023-04-18T18:08:40.053Z,63.12
2023-04-18T18:13:42.413Z,63.64
2023-04-18T18:18:44.063Z,63.78
2023-04-18T18:23:45.959Z,63.40
2023-04-18T18:28:47.635Z,63.13
2023-04-18T18:33:49.304Z,62.30
2023-04-18T18:38:51.126Z,61.60
2023-04-18T18:43:53.032Z,59.26
2023-04-18T18:48:54.692Z,58.34
2023-04-18T18:53:57.178Z,58.71
2023-04-18T18:58:58.834Z,59.18
2023-04-18T19:04:00.793Z,59.36
2023-04-18T19:09:02.706Z,59.96
2023-04-18T19:14:04.640Z,60.35
2023-04-18T19:19:07.394Z,61.14
2023-04-18T19:24:09.296Z,62.09
2023-04-18T19:29:13.992Z,62.76
2023-04-18T19:34:18.791Z,63.82
2023-04-18T19:39:20.495Z,64.84
2023-04-18T19:44:22.682Z,66.53
2023-04-18T19:49:24.365Z,68.12
2023-04-18T19:54:25.998Z,69.21
2023-04-18T19:59:27.794Z,69.89
2023-04-18T20:04:31.631Z,70.23
2023-04-18T20:09:33.594Z,71.94
2023-04-18T20:14:35.665Z,73.25
2023-04-18T20:19:37.300Z,74.10
2023-04-18T20:24:39.405Z,74.28
2023-04-18T20:29:41.187Z,74.05
2023-04-18T20:34:43.429Z,73.53
2023-04-18T20:39:45.533Z,73.79
2023-04-18T20:44:47.675Z,73.69
2023-04-18T20:49:49.281Z,73.69
2023-04-18T20:54:50.940Z,73.86
2023-04-18T20:59:52.653Z,74.31
2023-04-18T21:04:54.725Z,74.56
2023-04-18T21:09:57.055Z,75.46
2023-04-18T21:15:01.624Z,75.07
2023-04-18T21:20:03.494Z,75.41
2023-04-18T21:25:05.778Z,75.40
2023-04-18T21:30:08.320Z,75.33
2023-04-18T21:35:13.683Z,74.95
2023-04-18T21:40:15.930Z,74.90
2023-04-18T21:45:18.962Z,74.82
2023-04-18T21:50:22.254Z,74.74
2023-04-18T21:55:24.970Z,75.06
2023-04-18T22:00:27.745Z,74.90
2023-04-18T22:05:29.954Z,74.88
2023-04-18T22:10:34.256Z,74.15
2023-04-18T22:15:39.875Z,74.42
2023-04-18T22:20:41.581Z,74.15
2023-04-18T22:25:43.248Z,74.15
2023-04-18T22:30:45.135Z,74.06
2023-04-18T22:35:48.275Z,74.14
2023-04-18T22:40:49.954Z,74.52
2023-04-18T22:45:52.047Z,74.40
2023-04-18T22:50:54.244Z,74.78
2023-04-18T22:55:56.051Z,74.99
2023-04-18T23:00:59.334Z,75.26
2023-04-18T23:06:01.476Z,75.89
2023-04-18T23:11:05.791Z,76.04
2023-04-18T23:16:08.152Z,76.76
2023-04-18T23:21:09.850Z,76.56
2023-04-18T23:26:15.450Z,76.95
2023-04-18T23:31:17.619Z,77.07
2023-04-18T23:36:19.365Z,77.20
2023-04-18T23:41:21.826Z,77.13
2023-04-18T23:46:24.241Z,77.79
2023-04-18T23:51:27.965Z,77.51
2023-04-18T23:56:29.726Z,77.74
